Terminal Aerodrome Forecast
Issued by NWS

Home | Current Version | Previous Version | Text Only | Print | Product List | Glossary On
Versions: 1 2 3 4 5 6 7 8 9 10 11 12 13 14 15 16 17 18 19 20 21
000
FTUS43 KSGF 030800 AAA
TAFJLN
TAF AMD
KJLN 030849Z 0309/0406 18010KT P6SM OVC010 WS020/21040KT
     FM031100 16008KT 5SM BR OVC008 WS020/21040KT
     FM031200 18014G20KT 6SM BR OVC008
     FM031400 21017G25KT P6SM OVC010
     FM032000 24015G20KT P6SM OVC020
     FM032300 30009KT P6SM OVC010
     FM040200 35010KT P6SM OVC010=

USA.gov is the U.S. government's official web portal to all federal, state and local government web resources and services.